Time;durP1;ratioP1;P1;durP2;ratioP2;P2;SDS_P1;SDS_P2;PMS_P1;PMS_P2;Temp;Humidity;BMP_temperature;BMP_pressure;BME280_temperature;BME280_humidity;BME280_pressure;Samples;Min_cycle;Max_cycle;Signal;HPM_P1;HPM_P2
2022/06/30 03:02:33;;;;;;;6.40;3.40;;;28.30;48.10;;;;;;4922287;28;45719;-52
2022/06/30 03:04:59;;;;;;;9.45;3.10;;;28.30;48.10;;;;;;4918576;28;45247;-57
2022/06/30 03:07:24;;;;;;;7.78;3.15;;;28.30;48.10;;;;;;4920641;28;44944;-57
2022/06/30 03:09:50;;;;;;;4.72;3.15;;;28.30;48.00;;;;;;4935052;28;46126;-55
2022/06/30 03:12:15;;;;;;;4.57;3.22;;;28.30;48.00;;;;;;4934903;28;45360;-53
2022/06/30 03:14:41;;;;;;;5.03;2.78;;;28.30;48.00;;;;;;4938515;28;45211;-58
2022/06/30 03:17:07;;;;;;;10.80;3.80;;;28.30;47.90;;;;;;4936383;28;45852;-56
2022/06/30 03:19:32;;;;;;;6.97;3.22;;;28.30;47.90;;;;;;4933044;28;45904;-55
2022/06/30 03:21:58;;;;;;;5.40;3.78;;;28.30;48.50;;;;;;4936110;28;45351;-55
2022/06/30 03:24:23;;;;;;;4.05;2.78;;;28.30;47.90;;;;;;4933801;28;45513;-56
2022/06/30 03:26:49;;;;;;;6.80;3.10;;;28.30;47.80;;;;;;4936631;28;45493;-55
2022/06/30 03:29:15;;;;;;;6.28;2.95;;;28.30;47.80;;;;;;4939719;28;46057;-55
2022/06/30 03:31:40;;;;;;;4.30;2.95;;;28.30;47.80;;;;;;4939115;28;45639;-57
2022/06/30 03:34:06;;;;;;;3.97;2.72;;;28.20;47.80;;;;;;4938375;28;45463;-55
2022/06/30 03:36:31;;;;;;;8.43;2.92;;;28.20;47.90;;;;;;4937614;28;45289;-57
2022/06/30 03:38:57;;;;;;;3.53;2.67;;;28.20;47.90;;;;;;4943829;28;45600;-57
2022/06/30 03:41:22;;;;;;;4.45;2.80;;;28.20;47.90;;;;;;4937629;28;45006;-54
2022/06/30 03:43:48;;;;;;;5.18;3.33;;;28.20;48.00;;;;;;4935303;28;45550;-54
2022/06/30 03:46:14;;;;;;;6.75;3.45;;;28.20;48.00;;;;;;4938931;28;45571;-56
2022/06/30 03:48:41;;;;;;;4.50;3.05;;;28.20;48.00;;;;;;4935824;28;45986;-55
2022/06/30 03:51:07;;;;;;;6.35;3.40;;;28.20;48.00;;;;;;4939246;28;44961;-54
2022/06/30 03:53:32;;;;;;;4.95;2.85;;;28.20;48.00;;;;;;4937666;28;45484;-56
2022/06/30 03:55:58;;;;;;;6.75;2.95;;;28.20;47.90;;;;;;4937764;28;45024;-54
2022/06/30 03:58:24;;;;;;;8.60;3.20;;;28.20;48.00;;;;;;4935191;28;47013;-58
2022/06/30 04:00:49;;;;;;;7.50;3.20;;;28.20;48.00;;;;;;4928506;28;45369;-56
2022/06/30 04:03:15;;;;;;;7.20;3.08;;;28.20;48.10;;;;;;4934785;28;45021;-56
2022/06/30 04:05:40;;;;;;;6.47;3.13;;;28.20;48.10;;;;;;4936376;28;44949;-57
2022/06/30 04:08:06;;;;;;;4.70;3.20;;;28.20;48.40;;;;;;4938793;28;46227;-56
2022/06/30 04:10:32;;;;;;;4.85;3.17;;;28.20;48.20;;;;;;4936805;28;44655;-55
2022/06/30 04:12:57;;;;;;;4.55;3.00;;;28.20;48.20;;;;;;4935613;28;45041;-56
2022/06/30 04:15:23;;;;;;;5.03;3.03;;;28.20;48.20;;;;;;4934102;28;45288;-53
2022/06/30 04:17:48;;;;;;;6.03;3.60;;;28.10;48.30;;;;;;4934430;28;46154;-55
2022/06/30 04:20:17;;;;;;;5.07;3.10;;;28.10;48.30;;;;;;4934808;28;45407;-54
2022/06/30 04:22:52;;;;;;;6.35;2.92;;;28.10;48.40;;;;;;4938938;28;44936;-54
2022/06/30 04:25:18;;;;;;;5.88;3.10;;;28.10;48.40;;;;;;4932109;28;45225;-55
2022/06/30 04:27:46;;;;;;;4.90;3.85;;;28.10;48.40;;;;;;4942138;28;46001;-52
2022/06/30 04:30:12;;;;;;;5.03;3.20;;;28.10;48.40;;;;;;4941014;28;45476;-56
2022/06/30 04:32:38;;;;;;;4.97;3.08;;;28.10;48.40;;;;;;4930788;28;45108;-57
2022/06/30 04:35:05;;;;;;;7.13;3.47;;;28.10;48.40;;;;;;4931286;28;45111;-53
2022/06/30 04:37:31;;;;;;;6.50;3.40;;;28.10;49.20;;;;;;4935395;28;47182;-55
2022/06/30 04:42:40;;;;;;;9.65;3.13;;;28.10;48.60;;;;;;4934265;28;44840;-51
2022/06/30 04:45:07;;;;;;;4.57;3.70;;;28.10;48.60;;;;;;4941352;28;45285;-53
2022/06/30 04:47:34;;;;;;;5.78;3.28;;;28.10;48.70;;;;;;4945060;28;46053;-52
2022/06/30 04:50:00;;;;;;;6.22;3.40;;;28.10;48.70;;;;;;4931868;28;45138;-54
2022/06/30 04:52:25;;;;;;;7.18;3.70;;;28.10;48.80;;;;;;4931646;28;45165;-52
2022/06/30 04:54:51;;;;;;;6.00;3.50;;;28.10;48.80;;;;;;4930911;28;45457;-55
2022/06/30 04:57:16;;;;;;;5.80;3.33;;;28.00;48.80;;;;;;4938313;28;46010;-54
2022/06/30 04:59:42;;;;;;;5.40;4.00;;;28.10;48.90;;;;;;4937347;28;45227;-56
2022/06/30 05:02:07;;;;;;;5.53;3.83;;;28.00;48.90;;;;;;4939622;28;45041;-54
2022/06/30 05:04:33;;;;;;;8.35;3.83;;;28.00;49.00;;;;;;4938214;28;45178;-54
2022/06/30 05:06:58;;;;;;;8.52;3.47;;;28.00;49.00;;;;;;4921101;28;45571;-55
2022/06/30 05:09:24;;;;;;;9.02;4.28;;;28.00;49.00;;;;;;4940233;28;45116;-52
2022/06/30 05:11:49;;;;;;;5.72;3.50;;;28.00;49.00;;;;;;4941360;28;44904;-53
2022/06/30 05:14:16;;;;;;;6.15;3.88;;;28.10;49.10;;;;;;4946113;28;45519;-52
2022/06/30 05:16:41;;;;;;;8.20;4.30;;;28.10;49.00;;;;;;4944852;28;45929;-55
2022/06/30 05:19:07;;;;;;;6.03;3.92;;;28.10;49.10;;;;;;4940151;28;44968;-56
2022/06/30 05:21:33;;;;;;;5.57;4.20;;;28.10;49.10;;;;;;4936626;28;44754;-52
2022/06/30 05:26:42;;;;;;;4.50;4.00;;;28.00;49.10;;;;;;4932584;28;47224;-52
2022/06/30 05:29:08;;;;;;;5.72;3.75;;;28.00;49.10;;;;;;4939717;28;45720;-53
2022/06/30 05:31:33;;;;;;;4.93;3.45;;;28.10;49.20;;;;;;4936814;28;45032;-55
2022/06/30 05:33:59;;;;;;;5.00;3.60;;;28.10;49.20;;;;;;4943070;28;45228;-52
2022/06/30 05:36:24;;;;;;;4.78;4.28;;;28.10;49.30;;;;;;4942372;28;46192;-55
2022/06/30 05:38:50;;;;;;;6.70;4.20;;;28.10;49.50;;;;;;4945425;28;45376;-54
2022/06/30 05:41:16;;;;;;;6.03;4.07;;;28.10;49.60;;;;;;4915780;28;45002;-54
2022/06/30 05:43:41;;;;;;;5.00;3.58;;;28.00;49.80;;;;;;4939237;28;45551;-56
2022/06/30 05:46:07;;;;;;;6.07;4.22;;;28.10;49.80;;;;;;4950103;28;45508;-54
2022/06/30 05:48:32;;;;;;;5.63;4.10;;;28.10;49.90;;;;;;4949869;28;45591;-56
2022/06/30 05:50:58;;;;;;;7.57;4.78;;;28.10;50.00;;;;;;4939538;28;45230;-56
2022/06/30 05:53:24;;;;;;;5.07;4.22;;;28.10;50.10;;;;;;4944173;28;46137;-55
2022/06/30 05:55:49;;;;;;;7.88;4.50;;;28.10;50.10;;;;;;4951302;28;45015;-55
2022/06/30 05:58:16;;;;;;;6.90;4.57;;;28.10;50.10;;;;;;4941451;28;45209;-54
2022/06/30 06:00:42;;;;;;;;;;;28.10;50.20;;;;;;4939657;28;45320;-56
2022/06/30 06:03:07;;;;;;;;;;;28.10;50.90;;;;;;4942679;28;45480;-54
2022/06/30 06:05:33;;;;;;;;;;;28.10;50.70;;;;;;4942518;28;46106;-55
2022/06/30 06:08:05;;;;;;;;;;;28.10;50.80;;;;;;4940423;28;45039;-55
2022/06/30 06:10:31;;;;;;;;;;;28.10;50.90;;;;;;4950534;28;45161;-54
2022/06/30 06:12:56;;;;;;;;;;;28.00;51.10;;;;;;4940217;28;45049;-56
2022/06/30 06:15:22;;;;;;;;;;;28.00;51.20;;;;;;4943921;28;45889;-56
2022/06/30 06:17:47;;;;;;;;;;;28.00;51.30;;;;;;4937163;28;45270;-54
2022/06/30 06:20:14;;;;;;;;;;;28.00;51.40;;;;;;4940762;28;45092;-55
2022/06/30 06:22:40;;;;;;;;;;;28.00;51.30;;;;;;4929286;28;45829;-55
2022/06/30 06:25:06;;;;;;;;;;;28.10;51.30;;;;;;4938291;28;47227;-56
2022/06/30 06:27:31;;;;;;;;;;;28.10;51.40;;;;;;4938445;28;44626;-53
2022/06/30 06:29:57;;;;;;;;;;;28.10;51.40;;;;;;4939622;28;44765;-56
2022/06/30 06:32:22;;;;;;;;;;;28.10;51.50;;;;;;4923168;28;44988;-55
2022/06/30 06:34:48;;;;;;;;;;;28.10;51.50;;;;;;4945033;28;45494;-55
2022/06/30 06:37:13;;;;;;;;;;;28.10;51.70;;;;;;4931937;28;44963;-53
2022/06/30 06:39:39;;;;;;;;;;;28.10;51.50;;;;;;4942285;28;44707;-57
2022/06/30 06:42:04;;;;;;;;;;;28.20;52.00;;;;;;4935962;28;44870;-57
2022/06/30 06:44:30;;;;;;;;;;;28.20;51.60;;;;;;4949178;28;45640;-56
2022/06/30 06:46:55;;;;;;;;;;;28.20;51.50;;;;;;4946335;28;45419;-53
2022/06/30 06:49:21;;;;;;;;;;;28.20;51.50;;;;;;4941590;28;45522;-52
2022/06/30 06:51:46;;;;;;;;;;;28.30;51.60;;;;;;4938366;28;45668;-53
2022/06/30 06:54:12;;;;;;;;;;;28.30;51.50;;;;;;4943004;28;46095;-54
2022/06/30 06:56:37;;;;;;;;;;;28.40;51.60;;;;;;4948287;28;45604;-56
2022/06/30 06:59:03;;;;;;;;;;;28.40;51.30;;;;;;4942211;28;45963;-54
2022/06/30 07:01:28;;;;;;;;;;;28.40;51.30;;;;;;4939246;28;45426;-57
2022/06/30 07:03:54;;;;;;;;;;;28.50;51.50;;;;;;4943839;28;46015;-54
2022/06/30 07:06:19;;;;;;;;;;;28.50;51.50;;;;;;4938972;28;45282;-56
2022/06/30 07:08:45;;;;;;;;;;;28.50;51.40;;;;;;4941522;28;45233;-55
2022/06/30 07:11:11;;;;;;;;;;;28.50;51.50;;;;;;4934451;28;45545;-57
2022/06/30 07:13:36;;;;;;;;;;;28.50;51.30;;;;;;4942114;28;45375;-54
2022/06/30 07:16:02;;;;;;;;;;;28.60;51.30;;;;;;4938948;28;45312;-55
2022/06/30 07:18:28;;;;;;;;;;;28.60;51.20;;;;;;4944453;28;45302;-55
2022/06/30 07:20:53;;;;;;;;;;;28.60;51.10;;;;;;4920594;28;46442;-56
2022/06/30 07:23:19;;;;;;;;;;;28.70;51.10;;;;;;4940395;28;46002;-56
2022/06/30 07:25:44;;;;;;;;;;;28.70;51.10;;;;;;4942357;28;45662;-56
2022/06/30 07:28:10;;;;;;;;;;;28.70;51.00;;;;;;4940263;28;45145;-55
2022/06/30 07:30:35;;;;;;;;;;;28.80;51.10;;;;;;4942602;28;45531;-56
2022/06/30 07:33:01;;;;;;;;;;;28.80;51.70;;;;;;4940269;28;46128;-56
2022/06/30 07:35:26;;;;;;;;;;;28.80;50.90;;;;;;4939490;28;45457;-55
2022/06/30 07:37:52;;;;;;;;;;;28.80;50.90;;;;;;4948892;28;45484;-55
2022/06/30 07:40:17;;;;;;;;;;;28.90;50.90;;;;;;4945548;28;44996;-54
2022/06/30 07:42:43;;;;;;;;;;;28.90;50.90;;;;;;4935862;28;45897;-56
2022/06/30 07:45:10;;;;;;;;;;;28.90;50.80;;;;;;4922669;28;45296;-58
2022/06/30 07:47:36;;;;;;;;;;;29.00;50.80;;;;;;4928464;28;45560;-54
2022/06/30 07:50:02;;;;;;;;;;;29.00;50.60;;;;;;4943480;28;44741;-53
2022/06/30 07:52:27;;;;;;;;;;;29.10;50.50;;;;;;4917220;28;45581;-55
2022/06/30 07:54:53;;;;;;;;;;;29.10;50.40;;;;;;4946093;28;45202;-57
2022/06/30 07:57:19;;;;;;;;;;;29.10;50.30;;;;;;4939069;28;45500;-57
2022/06/30 07:59:44;;;;;;;6.18;4.63;;;29.10;50.30;;;;;;4938994;28;45256;-55
2022/06/30 08:02:11;;;;;;;8.63;5.00;;;29.10;50.00;;;;;;4945312;28;46237;-57
2022/06/30 08:04:37;;;;;;;7.93;5.13;;;29.20;50.00;;;;;;4945197;28;45411;-56
2022/06/30 08:07:03;;;;;;;6.63;4.95;;;29.20;49.90;;;;;;4943061;28;45191;-55
2022/06/30 08:09:29;;;;;;;14.82;5.50;;;29.20;49.70;;;;;;4941235;28;45364;-57
2022/06/30 08:11:55;;;;;;;8.55;4.68;;;29.30;49.60;;;;;;4922282;28;45256;-56
2022/06/30 08:14:21;;;;;;;5.10;4.60;;;29.20;49.50;;;;;;4932964;28;46221;-59
2022/06/30 08:16:47;;;;;;;6.93;4.95;;;29.20;49.50;;;;;;4915523;28;45419;-61
2022/06/30 08:19:13;;;;;;;8.63;5.07;;;29.30;49.60;;;;;;4936225;28;45711;-55
2022/06/30 08:21:38;;;;;;;7.10;4.85;;;29.30;49.50;;;;;;4935337;28;46302;-57
2022/06/30 08:24:04;;;;;;;6.05;4.50;;;29.30;49.50;;;;;;4935474;28;45238;-55
2022/06/30 08:26:31;;;;;;;7.90;4.95;;;29.30;49.50;;;;;;4943645;28;45180;-58
2022/06/30 08:28:56;;;;;;;6.40;4.85;;;29.40;49.50;;;;;;4948904;28;45410;-55
2022/06/30 08:31:22;;;;;;;6.25;4.80;;;29.40;49.50;;;;;;4939906;28;45993;-56
2022/06/30 08:33:50;;;;;;;6.40;4.93;;;29.40;49.40;;;;;;4937094;28;45092;-55
2022/06/30 08:36:16;;;;;;;9.05;5.45;;;29.50;49.50;;;;;;4925845;28;46355;-55
2022/06/30 08:38:42;;;;;;;8.57;5.10;;;29.50;49.50;;;;;;4935403;28;44774;-54
2022/06/30 08:43:51;;;;;;;6.45;4.70;;;29.50;49.50;;;;;;4915720;28;45451;-57
2022/06/30 08:46:17;;;;;;;5.30;4.60;;;29.50;50.10;;;;;;4900098;28;44751;-57
2022/06/30 08:48:42;;;;;;;6.32;5.22;;;29.50;49.50;;;;;;4922712;28;45196;-57
2022/06/30 08:51:08;;;;;;;7.20;5.25;;;29.50;49.50;;;;;;4932642;28;46182;-57
2022/06/30 08:53:45;;;;;;;6.32;5.15;;;29.60;49.50;;;;;;4933645;28;45125;-54
2022/06/30 08:56:10;;;;;;;6.10;4.80;;;29.60;49.60;;;;;;4929292;28;45191;-57
2022/06/30 08:58:36;;;;;;;6.85;4.72;;;29.60;49.50;;;;;;4934618;28;45283;-56
2022/06/30 09:01:02;;;;;;;6.25;4.95;;;29.70;49.60;;;;;;4925766;28;47137;-55
2022/06/30 09:03:28;;;;;;;8.77;5.53;;;29.70;49.50;;;;;;4942991;28;45557;-57
2022/06/30 09:05:55;;;;;;;5.88;5.22;;;29.70;49.50;;;;;;4947077;28;45251;-58
2022/06/30 09:08:21;;;;;;;6.97;5.15;;;29.80;49.50;;;;;;4926171;28;45435;-60
2022/06/30 09:10:52;;;;;;;5.28;4.68;;;29.80;50.10;;;;;;4939145;28;47245;-57
2022/06/30 09:13:18;;;;;;;6.95;4.93;;;29.80;49.50;;;;;;4943206;28;45534;-56
2022/06/30 09:15:43;;;;;;;5.75;4.80;;;29.80;49.50;;;;;;4933814;28;45484;-57
2022/06/30 09:18:23;;;;;;;7.05;4.72;;;29.90;49.40;;;;;;4936283;28;45257;-57
2022/06/30 09:20:49;;;;;;;5.45;4.85;;;29.90;49.40;;;;;;4920363;28;46138;-56
2022/06/30 09:23:25;;;;;;;6.50;5.10;;;29.90;49.30;;;;;;4924524;28;45565;-55
2022/06/30 09:25:52;;;;;;;5.53;4.93;;;30.00;49.40;;;;;;4945496;28;45276;-58
2022/06/30 09:28:43;;;;;;;5.38;4.45;;;30.00;49.30;;;;;;4939210;28;45161;-59
2022/06/30 09:31:09;;;;;;;5.20;4.70;;;30.00;49.30;;;;;;4931190;28;45042;-59
2022/06/30 09:33:35;;;;;;;7.40;5.75;;;30.00;49.30;;;;;;4944240;28;45447;-57
2022/06/30 09:36:24;;;;;;;7.53;5.25;;;30.00;49.20;;;;;;4940866;28;44935;-58
2022/06/30 09:39:04;;;;;;;6.07;5.38;;;30.10;49.30;;;;;;4934191;28;45737;-57
2022/06/30 09:41:31;;;;;;;6.15;5.35;;;30.10;49.30;;;;;;4942038;28;46023;-57
2022/06/30 09:43:57;;;;;;;6.40;4.97;;;30.00;49.20;;;;;;4943104;28;45543;-55
2022/06/30 09:46:22;;;;;;;5.22;4.72;;;30.10;49.20;;;;;;4939901;28;45449;-56
2022/06/30 09:48:48;;;;;;;5.93;5.43;;;30.10;49.20;;;;;;4941517;28;45426;-57
2022/06/30 09:51:13;;;;;;;6.20;5.03;;;30.10;49.20;;;;;;4945765;28;45550;-57
2022/06/30 09:53:39;;;;;;;5.13;4.63;;;30.20;49.10;;;;;;4937174;28;45495;-58
2022/06/30 09:56:12;;;;;;;6.47;5.80;;;30.20;49.10;;;;;;4938332;28;45577;-59
2022/06/30 09:58:42;;;;;;;5.80;4.97;;;30.20;49.00;;;;;;4940233;28;45467;-59
2022/06/30 10:01:08;;;;;;;5.97;5.38;;;30.20;49.00;;;;;;4938406;28;46213;-58
2022/06/30 10:03:33;;;;;;;5.15;4.55;;;30.20;49.00;;;;;;4933048;28;45509;-58
2022/06/30 10:06:10;;;;;;;5.30;4.80;;;30.20;49.00;;;;;;4944852;28;45285;-58
2022/06/30 10:08:35;;;;;;;6.35;5.00;;;30.30;49.00;;;;;;4933147;28;45025;-54
2022/06/30 10:11:01;;;;;;;5.28;4.40;;;30.30;49.60;;;;;;4937710;28;46200;-56
2022/06/30 10:13:27;;;;;;;6.22;5.15;;;30.30;49.00;;;;;;4943504;28;45433;-57
2022/06/30 10:15:54;;;;;;;6.13;5.15;;;30.30;48.90;;;;;;4911477;28;45758;-58
2022/06/30 10:18:24;;;;;;;6.60;5.30;;;30.40;48.90;;;;;;4933806;28;45220;-57
2022/06/30 10:20:49;;;;;;;5.38;4.88;;;30.40;49.50;;;;;;4936067;28;46054;-56
2022/06/30 10:23:15;;;;;;;5.47;4.65;;;30.40;48.90;;;;;;4935575;28;45265;-55
2022/06/30 10:25:41;;;;;;;5.70;4.90;;;30.40;49.20;;;;;;4925084;28;45269;-57
2022/06/30 10:28:06;;;;;;;8.77;5.28;;;30.40;48.80;;;;;;4921336;28;45462;-57
2022/06/30 10:30:50;;;;;;;5.85;5.35;;;30.40;48.80;;;;;;4943851;28;46247;-57
2022/06/30 10:33:36;;;;;;;5.68;4.90;;;30.50;48.80;;;;;;4920696;28;44863;-57
2022/06/30 10:36:07;;;;;;;9.45;4.63;;;30.50;49.30;;;;;;4925324;28;45345;-57
2022/06/30 10:38:54;;;;;;;5.63;5.13;;;30.50;48.70;;;;;;4943552;28;44760;-56
2022/06/30 10:41:20;;;;;;;5.90;5.35;;;30.50;48.50;;;;;;4912898;28;46100;-57
2022/06/30 10:44:04;;;;;;;7.35;4.85;;;30.60;48.60;;;;;;4923050;28;45258;-56
2022/06/30 10:46:56;;;;;;;5.70;5.20;;;30.60;48.50;;;;;;4937900;28;45310;-57
2022/06/30 10:49:26;;;;;;;5.95;5.43;;;30.60;48.50;;;;;;4929675;28;45455;-57
2022/06/30 10:52:16;;;;;;;5.97;5.10;;;30.50;48.40;;;;;;4935106;28;45903;-55
2022/06/30 10:54:44;;;;;;;7.55;5.43;;;30.60;48.50;;;;;;4940108;28;45145;-56
2022/06/30 10:57:11;;;;;;;5.30;4.80;;;30.60;48.50;;;;;;4943273;28;45472;-58
2022/06/30 10:59:37;;;;;;;5.72;5.10;;;30.60;48.50;;;;;;4941892;28;45501;-55
2022/06/30 11:02:09;;;;;;;5.85;5.22;;;30.60;48.40;;;;;;4937096;28;46309;-57
2022/06/30 11:04:42;;;;;;;7.07;5.47;;;30.60;48.30;;;;;;4933753;28;45204;-55
2022/06/30 11:07:08;;;;;;;;;;;30.70;48.40;;;;;;4926562;28;45316;-66
2022/06/30 11:09:57;;;;;;;5.70;5.03;;;30.60;48.40;;;;;;4932624;28;45052;-65
2022/06/30 11:12:48;;;;;;;7.55;4.68;;;30.70;48.40;;;;;;4926057;28;47246;-65
2022/06/30 11:15:14;;;;;;;6.28;5.25;;;30.80;48.40;;;;;;4940301;28;45249;-65
2022/06/30 11:17:40;;;;;;;6.65;5.05;;;30.80;48.40;;;;;;4919114;28;45123;-66
2022/06/30 11:20:07;;;;;;;5.35;4.85;;;30.80;48.40;;;;;;4943472;28;44798;-67
2022/06/30 11:22:33;;;;;;;6.68;4.95;;;30.80;48.30;;;;;;4942413;28;45276;-66
2022/06/30 11:25:01;;;;;;;7.10;5.22;;;30.90;48.30;;;;;;4930385;28;45223;-65
2022/06/30 11:27:28;;;;;;;7.45;5.00;;;30.90;48.30;;;;;;4943221;28;44750;-65
2022/06/30 11:29:58;;;;;;;6.68;5.03;;;30.90;48.30;;;;;;4922762;28;45219;-65
2022/06/30 11:32:23;;;;;;;5.30;4.80;;;31.00;48.30;;;;;;4940436;28;46219;-66
2022/06/30 11:34:49;;;;;;;6.32;4.70;;;31.00;48.20;;;;;;4921060;28;45161;-67
2022/06/30 11:37:29;;;;;;;5.97;5.00;;;31.00;48.30;;;;;;4930252;28;45156;-65
2022/06/30 11:39:58;;;;;;;7.60;5.00;;;31.00;48.20;;;;;;4926901;28;45528;-68
2022/06/30 11:42:23;;;;;;;5.10;4.65;;;31.00;48.20;;;;;;4917672;28;45916;-67
2022/06/30 11:44:49;;;;;;;5.53;5.03;;;31.00;48.20;;;;;;4921838;28;45206;-67
2022/06/30 11:47:18;;;;;;;5.82;5.10;;;31.00;48.10;;;;;;4918851;28;45474;-68
2022/06/30 11:49:50;;;;;;;4.95;4.55;;;31.00;48.10;;;;;;4936596;28;45280;-66
2022/06/30 11:52:17;;;;;;;6.55;4.80;;;31.10;48.10;;;;;;4924034;28;45803;-65
2022/06/30 11:54:46;;;;;;;6.28;4.93;;;31.00;48.10;;;;;;4943226;28;45187;-66
2022/06/30 11:57:12;;;;;;;5.38;4.85;;;31.10;48.20;;;;;;4938472;28;44767;-66
2022/06/30 11:59:43;;;;;;;7.43;4.82;;;31.10;48.20;;;;;;4940597;28;45411;-67
2022/06/30 12:02:09;;;;;;;6.45;5.15;;;31.10;48.10;;;;;;4918877;28;45949;-67
2022/06/30 12:04:37;;;;;;;5.53;5.03;;;31.10;48.20;;;;;;4931962;28;45559;-65
2022/06/30 12:07:05;;;;;;;4.78;4.38;;;31.10;48.10;;;;;;4935837;28;44859;-65
2022/06/30 12:09:31;;;;;;;5.20;4.65;;;31.10;48.10;;;;;;4923110;28;45296;-64
2022/06/30 12:11:58;;;;;;;6.68;5.20;;;31.20;48.20;;;;;;4885182;28;45904;-64
2022/06/30 12:14:24;;;;;;;7.35;5.20;;;31.20;48.20;;;;;;4907081;28;45110;-65
2022/06/30 12:16:56;;;;;;;5.32;4.82;;;31.20;48.10;;;;;;4933823;28;45264;-64
2022/06/30 12:19:23;;;;;;;5.15;4.75;;;31.20;48.10;;;;;;4920804;28;44888;-64
2022/06/30 12:21:50;;;;;;;6.00;5.07;;;31.20;48.20;;;;;;4900745;28;46846;-64
2022/06/30 12:24:15;;;;;;;5.82;4.85;;;31.30;48.20;;;;;;4936003;28;45371;-64
2022/06/30 12:26:48;;;;;;;5.82;4.93;;;31.20;48.10;;;;;;4921759;28;45265;-64
2022/06/30 12:29:13;;;;;;;5.95;4.80;;;31.30;48.20;;;;;;4921320;28;46075;-64
2022/06/30 12:31:39;;;;;;;5.03;4.63;;;31.20;48.10;;;;;;4915316;28;45543;-65
2022/06/30 12:34:04;;;;;;;5.63;4.88;;;31.30;48.10;;;;;;4938511;28;45286;-65
2022/06/30 12:36:31;;;;;;;7.03;4.78;;;31.30;48.10;;;;;;4925607;28;45286;-65
2022/06/30 12:39:00;;;;;;;5.57;5.07;;;31.30;48.10;;;;;;4924904;28;45414;-65
2022/06/30 12:41:25;;;;;;;5.43;5.03;;;31.40;48.10;;;;;;4924376;28;46022;-64
2022/06/30 12:43:51;;;;;;;5.82;5.07;;;31.40;48.00;;;;;;4924412;28;44668;-65
2022/06/30 12:46:17;;;;;;;5.30;4.80;;;31.40;48.00;;;;;;4893831;28;45105;-64
2022/06/30 12:48:48;;;;;;;5.60;5.00;;;31.40;48.00;;;;;;4932518;28;46640;-64
2022/06/30 12:51:32;;;;;;;5.25;4.75;;;31.40;48.00;;;;;;4946020;28;45713;-65
2022/06/30 12:54:04;;;;;;;5.35;4.68;;;31.40;48.00;;;;;;4950858;28;45203;-67
2022/06/30 12:56:30;;;;;;;5.23;4.73;;;31.40;48.10;;;;;;4917449;28;45425;-66
2022/06/30 12:59:11;;;;;;;6.85;5.30;;;31.40;48.10;;;;;;4924562;28;45078;-68
2022/06/30 13:01:38;;;;;;;5.93;5.03;;;31.40;48.10;;;;;;4923183;28;44952;-66
2022/06/30 13:04:08;;;;;;;5.35;4.43;;;31.50;48.10;;;;;;4942301;28;45418;-68
2022/06/30 13:06:41;;;;;;;5.05;4.55;;;31.50;48.10;;;;;;4928249;28;45502;-66
2022/06/30 13:09:07;;;;;;;;;;;31.50;48.20;;;;;;4946515;28;45236;-65
2022/06/30 13:11:34;;;;;;;6.45;4.38;;;31.50;48.20;;;;;;4929085;28;45997;-65
2022/06/30 13:14:00;;;;;;;5.28;4.78;;;31.50;48.20;;;;;;4937195;28;45541;-65
2022/06/30 13:16:27;;;;;;;5.32;4.82;;;31.50;48.20;;;;;;4939665;28;45395;-65
2022/06/30 13:18:52;;;;;;;5.38;4.50;;;31.50;48.20;;;;;;4908828;28;45126;-64
2022/06/30 13:21:18;;;;;;;5.18;4.68;;;31.60;48.20;;;;;;4942481;28;45757;-64
2022/06/30 13:23:44;;;;;;;4.80;4.40;;;31.50;48.20;;;;;;4933756;28;46213;-64
2022/06/30 13:26:10;;;;;;;5.25;4.75;;;31.60;48.20;;;;;;4943470;28;45638;-65
2022/06/30 13:28:36;;;;;;;5.20;4.70;;;31.60;48.20;;;;;;4943374;28;45214;-65
2022/06/30 13:31:01;;;;;;;6.13;4.85;;;31.50;48.20;;;;;;4921519;28;46111;-65
2022/06/30 13:33:27;;;;;;;5.72;4.78;;;31.60;48.30;;;;;;4923293;28;44724;-67
2022/06/30 13:35:53;;;;;;;5.20;4.80;;;31.60;48.30;;;;;;4939574;28;45934;-66
2022/06/30 13:38:18;;;;;;;5.63;4.60;;;31.60;48.30;;;;;;4911840;28;44756;-67
2022/06/30 13:40:44;;;;;;;5.40;4.90;;;31.60;48.30;;;;;;4929460;28;46041;-66
2022/06/30 13:43:09;;;;;;;5.28;4.78;;;31.60;48.40;;;;;;4941855;28;45610;-65
2022/06/30 13:45:35;;;;;;;4.82;4.43;;;31.60;48.40;;;;;;4927736;28;44711;-65
2022/06/30 13:48:01;;;;;;;4.78;4.20;;;31.60;48.40;;;;;;4945843;28;45440;-64
2022/06/30 13:50:26;;;;;;;5.97;4.72;;;31.60;48.40;;;;;;4924110;28;45578;-64
2022/06/30 13:52:52;;;;;;;4.72;4.32;;;31.60;48.40;;;;;;4947415;28;44747;-65
2022/06/30 13:55:17;;;;;;;5.13;4.72;;;31.60;48.50;;;;;;4941854;28;45167;-64
2022/06/30 13:57:43;;;;;;;5.38;4.88;;;31.60;48.50;;;;;;4927842;28;45329;-65
2022/06/30 14:00:09;;;;;;;4.85;4.25;;;31.60;48.50;;;;;;4925594;28;45921;-66
2022/06/30 14:02:34;;;;;;;5.40;4.88;;;31.60;48.50;;;;;;4927547;28;45238;-65
2022/06/30 14:05:00;;;;;;;4.75;4.32;;;31.60;48.50;;;;;;4943799;28;44738;-65
2022/06/30 14:07:26;;;;;;;5.63;4.68;;;31.70;48.50;;;;;;4946501;28;45230;-65
2022/06/30 14:09:53;;;;;;;4.70;4.30;;;31.70;48.50;;;;;;4928097;28;46202;-65
2022/06/30 14:12:19;;;;;;;4.63;4.22;;;31.70;48.50;;;;;;4921584;28;45425;-66
2022/06/30 14:14:44;;;;;;;4.93;4.43;;;31.70;48.60;;;;;;4922861;28;45381;-65
2022/06/30 14:17:10;;;;;;;4.97;4.57;;;31.70;48.50;;;;;;4929057;28;45577;-66
2022/06/30 14:19:36;;;;;;;5.13;4.68;;;31.70;48.50;;;;;;4922289;28;46547;-66
2022/06/30 14:22:01;;;;;;;4.90;4.45;;;31.70;48.50;;;;;;4940299;28;45527;-65
2022/06/30 14:24:27;;;;;;;5.95;5.35;;;31.70;48.40;;;;;;4927012;28;44669;-64
2022/06/30 14:26:53;;;;;;;6.18;4.47;;;31.70;48.40;;;;;;4932084;28;45056;-65
2022/06/30 14:29:19;;;;;;;4.82;4.43;;;31.70;48.30;;;;;;4924618;28;45010;-65
2022/06/30 14:31:44;;;;;;;5.32;4.88;;;31.80;48.40;;;;;;4933454;28;45419;-65
2022/06/30 14:34:10;;;;;;;5.72;4.60;;;31.70;48.30;;;;;;4923474;28;45523;-65
2022/06/30 14:36:36;;;;;;;5.57;5.07;;;31.80;48.30;;;;;;4925204;28;45538;-65
2022/06/30 14:39:02;;;;;;;4.88;4.47;;;31.80;48.40;;;;;;4934863;28;45835;-66
2022/06/30 14:44:12;;;;;;;6.75;5.00;;;31.80;48.40;;;;;;4921962;28;45272;-66
2022/06/30 14:46:37;;;;;;;5.10;4.70;;;31.80;48.50;;;;;;4918792;28;45139;-65
2022/06/30 14:49:04;;;;;;;7.60;4.90;;;31.80;48.40;;;;;;4921569;28;46830;-66
2022/06/30 14:51:30;;;;;;;5.70;5.20;;;31.80;48.40;;;;;;4921236;28;45468;-66
2022/06/30 14:53:55;;;;;;;5.05;4.60;;;31.80;48.40;;;;;;4942824;28;45578;-65
2022/06/30 14:56:21;;;;;;;4.80;4.40;;;31.80;48.40;;;;;;4928050;28;45203;-65
2022/06/30 14:58:47;;;;;;;5.05;4.55;;;31.80;48.40;;;;;;4945731;28;45489;-65
2022/06/30 15:01:12;;;;;;;5.20;4.70;;;31.80;48.40;;;;;;4915219;28;45242;-65
2022/06/30 15:03:38;;;;;;;5.18;4.35;;;31.80;48.40;;;;;;4923628;28;45476;-64
2022/06/30 15:06:04;;;;;;;4.55;4.10;;;31.80;48.40;;;;;;4936943;28;45609;-65
2022/06/30 15:08:29;;;;;;;5.07;4.68;;;31.90;48.40;;;;;;4931574;28;46141;-65
2022/06/30 15:10:55;;;;;;;5.07;4.55;;;31.90;48.50;;;;;;4942393;28;45330;-67
2022/06/30 15:13:21;;;;;;;4.53;4.13;;;31.90;48.50;;;;;;4930282;28;44961;-65
2022/06/30 15:15:47;;;;;;;4.05;3.65;;;31.90;48.40;;;;;;4932192;28;45784;-65
2022/06/30 15:18:14;;;;;;;4.85;4.00;;;31.90;48.20;;;;;;4948401;28;46401;-66
2022/06/30 15:24:04;;;;;;;3.72;3.42;;;31.90;48.20;;;;;;4944861;28;45647;-66
2022/06/30 15:26:09;;;;;;;3.85;3.55;;;32.00;48.10;;;;;;4941792;28;45478;-68
2022/06/30 15:28:34;;;;;;;4.28;3.83;;;32.10;48.10;;;;;;4949887;28;45170;-67
2022/06/30 15:31:00;;;;;;;3.70;3.40;;;32.00;48.00;;;;;;4949195;28;45747;-67
2022/06/30 15:33:25;;;;;;;5.32;3.83;;;32.10;48.00;;;;;;4945514;28;45453;-66
2022/06/30 15:35:55;;;;;;;4.57;4.18;;;32.10;47.80;;;;;;4937633;28;45413;-66
2022/06/30 15:38:20;;;;;;;3.85;3.55;;;32.20;48.40;;;;;;4930790;28;45163;-66
2022/06/30 15:40:46;;;;;;;3.90;3.60;;;32.20;47.70;;;;;;4931701;28;45221;-65
2022/06/30 15:43:12;;;;;;;4.60;4.20;;;32.20;47.60;;;;;;4913517;28;45906;-65
2022/06/30 15:45:40;;;;;;;4.00;3.70;;;32.20;47.60;;;;;;4914549;28;45704;-65
2022/06/30 15:48:05;;;;;;;4.07;3.65;;;32.20;47.50;;;;;;4929139;28;46458;-66
2022/06/30 15:50:31;;;;;;;4.53;3.92;;;32.20;47.50;;;;;;4912923;28;45562;-66
2022/06/30 15:52:57;;;;;;;4.35;3.92;;;32.20;47.50;;;;;;4930745;28;45627;-65
2022/06/30 15:55:23;;;;;;;4.05;3.65;;;32.20;47.50;;;;;;4909676;28;47085;-67
2022/06/30 15:57:48;;;;;;;4.20;3.80;;;32.20;47.40;;;;;;4928274;28;46173;-67
2022/06/30 16:00:14;;;;;;;4.05;3.67;;;32.20;47.40;;;;;;4933425;28;46219;-66
2022/06/30 16:02:41;;;;;;;3.95;3.58;;;32.20;47.40;;;;;;4916635;28;45662;-66
2022/06/30 16:05:07;;;;;;;4.70;4.30;;;32.20;47.30;;;;;;4911248;28;45761;-66
2022/06/30 16:07:33;;;;;;;4.57;4.20;;;32.20;47.20;;;;;;4893909;28;46397;-66
2022/06/30 16:09:59;;;;;;;5.75;4.28;;;32.20;47.20;;;;;;4928748;28;45771;-66
2022/06/30 16:12:24;;;;;;;4.82;4.15;;;32.20;47.20;;;;;;4913042;28;45650;-67
2022/06/30 16:14:50;;;;;;;4.25;3.85;;;32.20;47.10;;;;;;4928497;28;45357;-66